sensor_id;sensor_type;location;lat;lon;timestamp;pressure;altitude;pressure_sealevel;temperature;humidity
31585;BME280;18191;51.288;12.390;2023-10-31T00:01:43;49239.59;;;-144.47;100.00
31585;BME280;18191;51.288;12.390;2023-10-31T00:06:34;49239.59;;;-144.47;100.00
31585;BME280;18191;51.288;12.390;2023-10-31T00:11:25;49219.72;;;-144.47;100.00
31585;BME280;18191;51.288;12.390;2023-10-31T00:16:15;49195.84;;;-144.47;100.00
31585;BME280;18191;51.288;12.390;2023-10-31T00:21:06;49227.66;;;-144.47;100.00
31585;BME280;18191;51.288;12.390;2023-10-31T00:25:56;49263.47;;;-144.47;100.00
31585;BME280;18191;51.288;12.390;2023-10-31T00:30:46;49287.34;;;-144.47;100.00
31585;BME280;18191;51.288;12.390;2023-10-31T00:35:37;49243.56;;;-144.47;100.00
31585;BME280;18191;51.288;12.390;2023-10-31T00:40:27;49273.41;;;-144.47;100.00
31585;BME280;18191;51.288;12.390;2023-10-31T00:45:18;49243.56;;;-144.47;100.00
31585;BME280;18191;51.288;12.390;2023-10-31T00:50:08;49231.63;;;-144.47;100.00
31585;BME280;18191;51.288;12.390;2023-10-31T00:54:59;49227.66;;;-144.47;100.00
31585;BME280;18191;51.288;12.390;2023-10-31T00:59:49;49239.59;;;-144.47;100.00
31585;BME280;18191;51.288;12.390;2023-10-31T01:04:39;49199.81;;;-144.47;100.00
31585;BME280;18191;51.288;12.390;2023-10-31T01:09:30;49227.66;;;-144.47;100.00
31585;BME280;18191;51.288;12.390;2023-10-31T01:14:20;49235.63;;;-144.47;100.00
31585;BME280;18191;51.288;12.390;2023-10-31T01:19:10;49211.75;;;-144.47;100.00
31585;BME280;18191;51.288;12.390;2023-10-31T01:24:01;49243.56;;;-144.47;100.00
31585;BME280;18191;51.288;12.390;2023-10-31T01:28:52;49227.66;;;-144.47;100.00
31585;BME280;18191;51.288;12.390;2023-10-31T01:33:42;49255.50;;;-144.47;100.00
31585;BME280;18191;51.288;12.390;2023-10-31T01:38:32;49263.47;;;-144.47;100.00
31585;BME280;18191;51.288;12.390;2023-10-31T01:43:33;49245.56;;;-144.47;100.00
31585;BME280;18191;51.288;12.390;2023-10-31T01:48:24;49227.66;;;-144.47;100.00
31585;BME280;18191;51.288;12.390;2023-10-31T01:53:15;49223.69;;;-144.47;100.00
31585;BME280;18191;51.288;12.390;2023-10-31T01:58:05;49251.53;;;-144.47;100.00
31585;BME280;18191;51.288;12.390;2023-10-31T02:02:57;49259.50;;;-144.47;100.00
31585;BME280;18191;51.288;12.390;2023-10-31T02:07:47;49235.63;;;-144.47;100.00
31585;BME280;18191;51.288;12.390;2023-10-31T02:12:38;49227.66;;;-144.47;100.00
31585;BME280;18191;51.288;12.390;2023-10-31T02:17:29;49235.63;;;-144.47;100.00
31585;BME280;18191;51.288;12.390;2023-10-31T02:22:19;49245.56;;;-144.47;100.00
31585;BME280;18191;51.288;12.390;2023-10-31T02:27:09;49267.44;;;-144.47;100.00
31585;BME280;18191;51.288;12.390;2023-10-31T02:32:00;49231.63;;;-144.47;100.00
31585;BME280;18191;51.288;12.390;2023-10-31T02:36:50;49243.56;;;-144.47;100.00
31585;BME280;18191;51.288;12.390;2023-10-31T02:41:40;49243.56;;;-144.47;100.00
31585;BME280;18191;51.288;12.390;2023-10-31T02:46:31;49239.59;;;-144.47;100.00
31585;BME280;18191;51.288;12.390;2023-10-31T02:51:21;49263.47;;;-144.47;100.00
31585;BME280;18191;51.288;12.390;2023-10-31T02:56:11;49219.72;;;-144.47;100.00
31585;BME280;18191;51.288;12.390;2023-10-31T03:01:02;49267.44;;;-144.47;100.00
31585;BME280;18191;51.288;12.390;2023-10-31T03:05:52;49255.50;;;-144.47;100.00
31585;BME280;18191;51.288;12.390;2023-10-31T03:10:42;49235.63;;;-144.47;100.00
31585;BME280;18191;51.288;12.390;2023-10-31T03:15:32;49249.53;;;-144.47;100.00
31585;BME280;18191;51.288;12.390;2023-10-31T03:20:23;49263.47;;;-144.47;100.00
31585;BME280;18191;51.288;12.390;2023-10-31T03:25:13;49251.53;;;-144.47;100.00
31585;BME280;18191;51.288;12.390;2023-10-31T03:30:04;49231.63;;;-144.47;100.00
31585;BME280;18191;51.288;12.390;2023-10-31T03:34:55;49243.56;;;-144.47;100.00
31585;BME280;18191;51.288;12.390;2023-10-31T03:39:45;49239.59;;;-144.47;100.00
31585;BME280;18191;51.288;12.390;2023-10-31T03:44:35;49265.47;;;-144.47;100.00
31585;BME280;18191;51.288;12.390;2023-10-31T03:49:25;49219.72;;;-144.47;100.00
31585;BME280;18191;51.288;12.390;2023-10-31T03:54:17;49255.50;;;-144.47;100.00
31585;BME280;18191;51.288;12.390;2023-10-31T03:59:07;49243.56;;;-144.47;100.00
31585;BME280;18191;51.288;12.390;2023-10-31T04:03:57;49281.38;;;-144.47;100.00
31585;BME280;18191;51.288;12.390;2023-10-31T04:08:48;49215.72;;;-144.47;100.00
31585;BME280;18191;51.288;12.390;2023-10-31T04:13:38;49231.63;;;-144.47;100.00
31585;BME280;18191;51.288;12.390;2023-10-31T04:18:28;49251.53;;;-144.47;100.00
31585;BME280;18191;51.288;12.390;2023-10-31T04:23:19;49253.53;;;-144.47;100.00
31585;BME280;18191;51.288;12.390;2023-10-31T04:28:09;49233.63;;;-144.47;100.00
31585;BME280;18191;51.288;12.390;2023-10-31T04:32:59;49279.38;;;-144.47;100.00
31585;BME280;18191;51.288;12.390;2023-10-31T04:37:49;49243.56;;;-144.47;100.00
31585;BME280;18191;51.288;12.390;2023-10-31T04:42:40;49233.63;;;-144.47;100.00
31585;BME280;18191;51.288;12.390;2023-10-31T04:47:31;49235.63;;;-144.47;100.00
31585;BME280;18191;51.288;12.390;2023-10-31T04:52:21;49231.63;;;-144.47;100.00
31585;BME280;18191;51.288;12.390;2023-10-31T04:57:12;49295.31;;;-144.47;100.00
31585;BME280;18191;51.288;12.390;2023-10-31T05:02:03;49265.47;;;-144.47;100.00
31585;BME280;18191;51.288;12.390;2023-10-31T05:06:53;49269.44;;;-144.47;100.00
31585;BME280;18191;51.288;12.390;2023-10-31T05:11:43;49269.44;;;-144.47;100.00
31585;BME280;18191;51.288;12.390;2023-10-31T05:16:39;49219.72;;;-144.47;100.00
31585;BME280;18191;51.288;12.390;2023-10-31T05:21:29;49255.50;;;-144.47;100.00
31585;BME280;18191;51.288;12.390;2023-10-31T05:26:20;49287.34;;;-144.47;100.00
31585;BME280;18191;51.288;12.390;2023-10-31T05:31:11;49251.53;;;-144.47;100.00
31585;BME280;18191;51.288;12.390;2023-10-31T05:36:02;49239.59;;;-144.47;100.00
31585;BME280;18191;51.288;12.390;2023-10-31T05:40:53;49225.66;;;-144.47;99.05
31585;BME280;18191;51.288;12.390;2023-10-31T05:45:43;49243.56;;;-144.47;98.66
31585;BME280;18191;51.288;12.390;2023-10-31T05:50:33;49209.75;;;-144.47;97.53
31585;BME280;18191;51.288;12.390;2023-10-31T05:55:24;49247.56;;;-144.47;97.37
31585;BME280;18191;51.288;12.390;2023-10-31T06:00:14;49229.66;;;-144.47;95.60
31585;BME280;18191;51.288;12.390;2023-10-31T06:05:05;49273.41;;;-144.47;94.74
31585;BME280;18191;51.288;12.390;2023-10-31T06:09:56;49219.72;;;-144.47;95.02
31585;BME280;18191;51.288;12.390;2023-10-31T06:14:46;49211.75;;;-144.47;93.85
31585;BME280;18191;51.288;12.390;2023-10-31T06:19:37;49233.63;;;-144.47;93.10
31585;BME280;18191;51.288;12.390;2023-10-31T06:24:27;49241.59;;;-144.47;92.30
31585;BME280;18191;51.288;12.390;2023-10-31T06:29:17;49255.50;;;-144.47;91.65
31585;BME280;18191;51.288;12.390;2023-10-31T06:34:08;49263.47;;;-144.47;91.04
31585;BME280;18191;51.288;12.390;2023-10-31T06:38:58;49223.69;;;-144.47;90.60
31585;BME280;18191;51.288;12.390;2023-10-31T06:43:48;49257.50;;;-144.47;89.18
31585;BME280;18191;51.288;12.390;2023-10-31T06:48:39;49263.47;;;-144.47;88.36
31585;BME280;18191;51.288;12.390;2023-10-31T06:53:29;49227.66;;;-144.47;89.36
31585;BME280;18191;51.288;12.390;2023-10-31T06:58:19;49203.78;;;-144.47;88.11
31585;BME280;18191;51.288;12.390;2023-10-31T07:03:10;49255.50;;;-144.47;87.68
31585;BME280;18191;51.288;12.390;2023-10-31T07:08:05;49225.66;;;-144.47;87.84
31585;BME280;18191;51.288;12.390;2023-10-31T07:12:55;49203.78;;;-144.47;86.83
31585;BME280;18191;51.288;12.390;2023-10-31T07:17:46;49207.78;;;-144.47;86.60
31585;BME280;18191;51.288;12.390;2023-10-31T07:22:36;49243.56;;;-144.47;85.70
31585;BME280;18191;51.288;12.390;2023-10-31T07:27:26;49243.56;;;-144.47;86.56
31585;BME280;18191;51.288;12.390;2023-10-31T07:32:16;49219.72;;;-144.47;85.05
31585;BME280;18191;51.288;12.390;2023-10-31T07:37:07;49203.78;;;-144.47;85.53
31585;BME280;18191;51.288;12.390;2023-10-31T07:41:57;49213.75;;;-144.47;82.91
31585;BME280;18191;51.288;12.390;2023-10-31T07:46:48;49247.56;;;-144.47;81.89
31585;BME280;18191;51.288;12.390;2023-10-31T07:51:38;49247.56;;;-144.47;81.03
31585;BME280;18191;51.288;12.390;2023-10-31T07:56:28;49207.78;;;-144.47;80.10
31585;BME280;18191;51.288;12.390;2023-10-31T08:01:19;49219.72;;;-144.47;79.71
31585;BME280;18191;51.288;12.390;2023-10-31T08:06:10;49211.75;;;-144.47;79.63
31585;BME280;18191;51.288;12.390;2023-10-31T08:11:01;49203.78;;;-144.47;77.30
31585;BME280;18191;51.288;12.390;2023-10-31T08:15:51;49227.66;;;-144.47;79.11
31585;BME280;18191;51.288;12.390;2023-10-31T08:20:41;49259.50;;;-144.47;78.22
31585;BME280;18191;51.288;12.390;2023-10-31T08:25:33;49239.59;;;-144.47;75.82
31585;BME280;18191;51.288;12.390;2023-10-31T08:30:23;49191.84;;;-144.47;76.14
31585;BME280;18191;51.288;12.390;2023-10-31T08:35:13;49203.78;;;-144.47;74.99
31585;BME280;18191;51.288;12.390;2023-10-31T08:40:05;49243.56;;;-144.47;76.26
31585;BME280;18191;51.288;12.390;2023-10-31T08:44:55;49187.88;;;-144.47;74.56
31585;BME280;18191;51.288;12.390;2023-10-31T08:49:45;49203.78;;;-144.47;75.02
31585;BME280;18191;51.288;12.390;2023-10-31T08:54:36;49187.88;;;-144.47;74.66
31585;BME280;18191;51.288;12.390;2023-10-31T08:59:26;49181.91;;;-144.47;73.02
31585;BME280;18191;51.288;12.390;2023-10-31T09:04:16;49239.59;;;-144.47;72.39
31585;BME280;18191;51.288;12.390;2023-10-31T09:09:07;49235.63;;;-144.47;72.68
31585;BME280;18191;51.288;12.390;2023-10-31T09:13:57;49211.75;;;-144.47;72.94
31585;BME280;18191;51.288;12.390;2023-10-31T09:18:47;49187.88;;;-144.47;73.26
31585;BME280;18191;51.288;12.390;2023-10-31T09:23:38;49187.88;;;-144.47;74.17
31585;BME280;18191;51.288;12.390;2023-10-31T09:28:29;49160.03;;;-144.47;73.64
31585;BME280;18191;51.288;12.390;2023-10-31T09:33:19;49247.56;;;-144.47;74.04
31585;BME280;18191;51.288;12.390;2023-10-31T09:38:09;49187.88;;;-144.47;73.04
31585;BME280;18191;51.288;12.390;2023-10-31T09:42:59;49209.75;;;-144.47;75.56
31585;BME280;18191;51.288;12.390;2023-10-31T09:47:50;49209.75;;;-144.47;74.07
31585;BME280;18191;51.288;12.390;2023-10-31T09:52:40;49191.84;;;-144.47;72.04
31585;BME280;18191;51.288;12.390;2023-10-31T09:57:31;49219.72;;;-144.47;71.15
31585;BME280;18191;51.288;12.390;2023-10-31T10:02:22;49183.91;;;-144.47;70.66
31585;BME280;18191;51.288;12.390;2023-10-31T10:07:16;49199.81;;;-144.47;69.30
31585;BME280;18191;51.288;12.390;2023-10-31T10:12:06;49227.66;;;-144.47;68.11
31585;BME280;18191;51.288;12.390;2023-10-31T10:16:58;49203.78;;;-144.47;69.34
31585;BME280;18191;51.288;12.390;2023-10-31T10:21:53;49211.75;;;-144.47;69.05
31585;BME280;18191;51.288;12.390;2023-10-31T10:26:44;49173.94;;;-144.47;68.32
31585;BME280;18191;51.288;12.390;2023-10-31T10:31:35;49185.88;;;-144.47;67.64
31585;BME280;18191;51.288;12.390;2023-10-31T10:36:25;49199.81;;;-144.47;68.96
31585;BME280;18191;51.288;12.390;2023-10-31T10:41:18;49179.91;;;-144.47;68.69
31585;BME280;18191;51.288;12.390;2023-10-31T10:46:12;49211.75;;;-144.47;68.42
31585;BME280;18191;51.288;12.390;2023-10-31T10:51:13;49217.72;;;-144.47;67.09
31585;BME280;18191;51.288;12.390;2023-10-31T10:56:59;49154.06;;;-144.47;65.03
31585;BME280;18191;51.288;12.390;2023-10-31T11:01:22;49203.78;;;-144.47;65.66
31585;BME280;18191;51.288;12.390;2023-10-31T11:06:13;49181.91;;;-144.47;65.00
31585;BME280;18191;51.288;12.390;2023-10-31T11:11:05;49160.03;;;-144.47;66.03
31585;BME280;18191;51.288;12.390;2023-10-31T11:15:57;49225.66;;;-144.47;63.93
31585;BME280;18191;51.288;12.390;2023-10-31T11:20:50;49203.78;;;-144.47;65.62
31585;BME280;18191;51.288;12.390;2023-10-31T11:25:44;49207.78;;;-144.47;65.54
31585;BME280;18191;51.288;12.390;2023-10-31T11:30:34;49215.72;;;-144.47;64.67
31585;BME280;18191;51.288;12.390;2023-10-31T11:35:25;49181.91;;;-144.47;66.09
31585;BME280;18191;51.288;12.390;2023-10-31T11:40:22;49195.84;;;-144.47;66.67
31585;BME280;18191;51.288;12.390;2023-10-31T11:45:12;49205.78;;;-144.47;65.75
31585;BME280;18191;51.288;12.390;2023-10-31T11:50:03;49203.78;;;-144.47;67.47
31585;BME280;18191;51.288;12.390;2023-10-31T11:54:53;49211.75;;;-144.47;67.64
31585;BME280;18191;51.288;12.390;2023-10-31T11:59:44;49215.72;;;-144.47;67.24
31585;BME280;18191;51.288;12.390;2023-10-31T12:04:34;49191.84;;;-144.47;65.92
31585;BME280;18191;51.288;12.390;2023-10-31T12:09:24;49211.75;;;-144.47;68.24
31585;BME280;18191;51.288;12.390;2023-10-31T12:14:18;49213.75;;;-144.47;68.65
31585;BME280;18191;51.288;12.390;2023-10-31T12:19:08;49207.78;;;-144.47;68.88
31585;BME280;18191;51.288;12.390;2023-10-31T12:24:06;49191.84;;;-144.47;67.80
31585;BME280;18191;51.288;12.390;2023-10-31T12:29:08;49227.66;;;-144.47;69.03
31585;BME280;18191;51.288;12.390;2023-10-31T12:34:03;49166.00;;;-144.47;68.97
31585;BME280;18191;51.288;12.390;2023-10-31T12:38:54;49183.91;;;-144.47;67.70
31585;BME280;18191;51.288;12.390;2023-10-31T12:43:45;49191.84;;;-144.47;66.59
31585;BME280;18191;51.288;12.390;2023-10-31T12:48:37;49189.88;;;-144.47;67.44
31585;BME280;18191;51.288;12.390;2023-10-31T12:53:27;49221.69;;;-144.47;66.51
31585;BME280;18191;51.288;12.390;2023-10-31T12:58:21;49185.88;;;-144.47;66.29
31585;BME280;18191;51.288;12.390;2023-10-31T13:03:11;49211.75;;;-144.47;66.71
31585;BME280;18191;51.288;12.390;2023-10-31T13:08:02;49187.88;;;-144.47;68.08
31585;BME280;18191;51.288;12.390;2023-10-31T13:12:55;49211.75;;;-144.47;67.65
31585;BME280;18191;51.288;12.390;2023-10-31T13:17:46;49187.88;;;-144.47;67.44
31585;BME280;18191;51.288;12.390;2023-10-31T13:22:37;49227.66;;;-144.47;67.61
31585;BME280;18191;51.288;12.390;2023-10-31T13:27:27;49207.78;;;-144.47;67.61
31585;BME280;18191;51.288;12.390;2023-10-31T13:32:18;49207.78;;;-144.47;68.23
31585;BME280;18191;51.288;12.390;2023-10-31T13:37:08;49179.91;;;-144.47;68.92
31585;BME280;18191;51.288;12.390;2023-10-31T13:41:58;49199.81;;;-144.47;68.40
31585;BME280;18191;51.288;12.390;2023-10-31T13:46:49;49187.88;;;-144.47;68.81
31585;BME280;18191;51.288;12.390;2023-10-31T13:51:39;49215.72;;;-144.47;69.96
31585;BME280;18191;51.288;12.390;2023-10-31T13:56:30;49152.06;;;-144.47;70.47
31585;BME280;18191;51.288;12.390;2023-10-31T14:01:20;49183.91;;;-144.47;69.74
31585;BME280;18191;51.288;12.390;2023-10-31T14:06:14;49160.03;;;-144.47;68.85
31585;BME280;18191;51.288;12.390;2023-10-31T14:11:05;49177.94;;;-144.47;71.83
31585;BME280;18191;51.288;12.390;2023-10-31T14:15:55;49187.88;;;-144.47;71.26
31585;BME280;18191;51.288;12.390;2023-10-31T14:20:45;49187.88;;;-144.47;70.12
31585;BME280;18191;51.288;12.390;2023-10-31T14:25:36;49195.84;;;-144.47;70.71
31585;BME280;18191;51.288;12.390;2023-10-31T14:30:28;49197.81;;;-144.47;70.78
31585;BME280;18191;51.288;12.390;2023-10-31T14:35:18;49181.91;;;-144.47;70.78
31585;BME280;18191;51.288;12.390;2023-10-31T14:40:09;49187.88;;;-144.47;70.83
31585;BME280;18191;51.288;12.390;2023-10-31T14:45:00;49191.84;;;-144.47;71.74
31585;BME280;18191;51.288;12.390;2023-10-31T14:49:50;49195.84;;;-144.47;72.07
31585;BME280;18191;51.288;12.390;2023-10-31T14:54:40;49231.63;;;-144.47;71.19
31585;BME280;18191;51.288;12.390;2023-10-31T14:59:32;49175.94;;;-144.47;72.31
31585;BME280;18191;51.288;12.390;2023-10-31T15:04:22;49195.84;;;-144.47;72.42
31585;BME280;18191;51.288;12.390;2023-10-31T15:09:13;49247.56;;;-144.47;72.37
31585;BME280;18191;51.288;12.390;2023-10-31T15:14:03;49189.88;;;-144.47;72.89
31585;BME280;18191;51.288;12.390;2023-10-31T15:18:54;49223.69;;;-144.47;72.36
31585;BME280;18191;51.288;12.390;2023-10-31T15:23:45;49185.88;;;-144.47;72.32
31585;BME280;18191;51.288;12.390;2023-10-31T15:28:36;49203.78;;;-144.47;71.87
31585;BME280;18191;51.288;12.390;2023-10-31T15:33:27;49211.75;;;-144.47;71.17
31585;BME280;18191;51.288;12.390;2023-10-31T15:38:17;49187.88;;;-144.47;72.47
31585;BME280;18191;51.288;12.390;2023-10-31T15:43:08;49197.81;;;-144.47;74.34
31585;BME280;18191;51.288;12.390;2023-10-31T15:47:58;49201.81;;;-144.47;74.35
31585;BME280;18191;51.288;12.390;2023-10-31T15:52:49;49227.66;;;-144.47;74.55
31585;BME280;18191;51.288;12.390;2023-10-31T15:57:39;49191.84;;;-144.47;72.96
31585;BME280;18191;51.288;12.390;2023-10-31T16:02:29;49215.72;;;-144.47;73.91
31585;BME280;18191;51.288;12.390;2023-10-31T16:07:20;49203.78;;;-144.47;74.16
31585;BME280;18191;51.288;12.390;2023-10-31T16:12:10;49199.81;;;-144.47;75.84
31585;BME280;18191;51.288;12.390;2023-10-31T16:17:00;49187.88;;;-144.47;74.42
31585;BME280;18191;51.288;12.390;2023-10-31T16:21:51;49219.72;;;-144.47;75.18
31585;BME280;18191;51.288;12.390;2023-10-31T16:26:41;49211.75;;;-144.47;75.05
31585;BME280;18191;51.288;12.390;2023-10-31T16:31:32;49203.78;;;-144.47;74.66
31585;BME280;18191;51.288;12.390;2023-10-31T16:36:22;49255.50;;;-144.47;74.27
31585;BME280;18191;51.288;12.390;2023-10-31T16:41:13;49191.84;;;-144.47;74.06
31585;BME280;18191;51.288;12.390;2023-10-31T16:46:03;49235.63;;;-144.47;75.17
31585;BME280;18191;51.288;12.390;2023-10-31T16:50:53;49195.84;;;-144.47;75.37
31585;BME280;18191;51.288;12.390;2023-10-31T16:55:44;49195.84;;;-144.47;74.10
31585;BME280;18191;51.288;12.390;2023-10-31T17:00:35;49179.91;;;-144.47;74.26
31585;BME280;18191;51.288;12.390;2023-10-31T17:05:26;49179.91;;;-144.47;74.95
31585;BME280;18191;51.288;12.390;2023-10-31T17:10:16;49233.63;;;-144.47;74.83
31585;BME280;18191;51.288;12.390;2023-10-31T17:15:07;49229.66;;;-144.47;76.05
31585;BME280;18191;51.288;12.390;2023-10-31T17:19:57;49171.97;;;-144.47;75.95
31585;BME280;18191;51.288;12.390;2023-10-31T17:24:48;49203.78;;;-144.47;74.62
31585;BME280;18191;51.288;12.390;2023-10-31T17:29:38;49179.91;;;-144.47;75.03
31585;BME280;18191;51.288;12.390;2023-10-31T17:34:28;49164.00;;;-144.47;75.20
31585;BME280;18191;51.288;12.390;2023-10-31T17:39:19;49191.84;;;-144.47;74.47
31585;BME280;18191;51.288;12.390;2023-10-31T17:44:09;49227.66;;;-144.47;74.69
31585;BME280;18191;51.288;12.390;2023-10-31T17:48:59;49166.00;;;-144.47;73.95
31585;BME280;18191;51.288;12.390;2023-10-31T17:53:49;49199.81;;;-144.47;74.86
31585;BME280;18191;51.288;12.390;2023-10-31T17:58:40;49179.91;;;-144.47;74.68
31585;BME280;18191;51.288;12.390;2023-10-31T18:03:30;49171.97;;;-144.47;74.08
31585;BME280;18191;51.288;12.390;2023-10-31T18:08:20;49199.81;;;-144.47;73.15
31585;BME280;18191;51.288;12.390;2023-10-31T18:13:11;49217.72;;;-144.47;74.89
31585;BME280;18191;51.288;12.390;2023-10-31T18:18:01;49175.94;;;-144.47;74.66
31585;BME280;18191;51.288;12.390;2023-10-31T18:22:51;49195.84;;;-144.47;73.74
31585;BME280;18191;51.288;12.390;2023-10-31T18:27:42;49203.78;;;-144.47;74.26
31585;BME280;18191;51.288;12.390;2023-10-31T18:32:32;49227.66;;;-144.47;73.39
31585;BME280;18191;51.288;12.390;2023-10-31T18:37:23;49189.88;;;-144.47;75.37
31585;BME280;18191;51.288;12.390;2023-10-31T18:42:13;49207.78;;;-144.47;75.69
31585;BME280;18191;51.288;12.390;2023-10-31T18:47:04;49189.88;;;-144.47;74.86
31585;BME280;18191;51.288;12.390;2023-10-31T18:51:54;49187.88;;;-144.47;75.36
31585;BME280;18191;51.288;12.390;2023-10-31T18:56:45;49187.88;;;-144.47;75.31
31585;BME280;18191;51.288;12.390;2023-10-31T19:01:35;49203.78;;;-144.47;75.11
31585;BME280;18191;51.288;12.390;2023-10-31T19:06:25;49221.69;;;-144.47;76.47
31585;BME280;18191;51.288;12.390;2023-10-31T19:11:16;49179.91;;;-144.47;75.00
31585;BME280;18191;51.288;12.390;2023-10-31T19:16:07;49169.97;;;-144.47;75.97
31585;BME280;18191;51.288;12.390;2023-10-31T19:20:57;49160.03;;;-144.47;75.52
31585;BME280;18191;51.288;12.390;2023-10-31T19:25:47;49227.66;;;-144.47;76.74
31585;BME280;18191;51.288;12.390;2023-10-31T19:30:38;49177.94;;;-144.47;78.45
31585;BME280;18191;51.288;12.390;2023-10-31T19:35:30;49199.81;;;-144.47;78.24
31585;BME280;18191;51.288;12.390;2023-10-31T19:40:20;49213.75;;;-144.47;78.82
31585;BME280;18191;51.288;12.390;2023-10-31T19:45:10;49195.84;;;-144.47;79.08
31585;BME280;18191;51.288;12.390;2023-10-31T19:50:02;49223.69;;;-144.47;79.27
31585;BME280;18191;51.288;12.390;2023-10-31T19:54:52;49207.78;;;-144.47;79.67
31585;BME280;18191;51.288;12.390;2023-10-31T19:59:43;49187.88;;;-144.47;80.33
31585;BME280;18191;51.288;12.390;2023-10-31T20:04:33;49207.78;;;-144.47;79.74
31585;BME280;18191;51.288;12.390;2023-10-31T20:09:23;49164.00;;;-144.47;80.16
31585;BME280;18191;51.288;12.390;2023-10-31T20:14:15;49207.78;;;-144.47;78.71
31585;BME280;18191;51.288;12.390;2023-10-31T20:19:05;49191.84;;;-144.47;77.83
31585;BME280;18191;51.288;12.390;2023-10-31T20:23:58;49219.72;;;-144.47;79.12
31585;BME280;18191;51.288;12.390;2023-10-31T20:28:48;49215.72;;;-144.47;79.34
31585;BME280;18191;51.288;12.390;2023-10-31T20:33:38;49189.88;;;-144.47;80.19
31585;BME280;18191;51.288;12.390;2023-10-31T20:38:30;49211.75;;;-144.47;80.15
31585;BME280;18191;51.288;12.390;2023-10-31T20:43:20;49177.94;;;-144.47;80.09
31585;BME280;18191;51.288;12.390;2023-10-31T20:48:11;49203.78;;;-144.47;80.84
31585;BME280;18191;51.288;12.390;2023-10-31T20:53:01;49229.66;;;-144.47;80.59
31585;BME280;18191;51.288;12.390;2023-10-31T20:57:53;49205.78;;;-144.47;80.92
31585;BME280;18191;51.288;12.390;2023-10-31T21:02:43;49223.69;;;-144.47;81.25
31585;BME280;18191;51.288;12.390;2023-10-31T21:07:34;49231.63;;;-144.47;83.33
31585;BME280;18191;51.288;12.390;2023-10-31T21:12:25;49211.75;;;-144.47;82.40
31585;BME280;18191;51.288;12.390;2023-10-31T21:17:15;49211.75;;;-144.47;80.59
31585;BME280;18191;51.288;12.390;2023-10-31T21:22:05;49215.72;;;-144.47;80.65
31585;BME280;18191;51.288;12.390;2023-10-31T21:26:59;49233.63;;;-144.47;81.54
31585;BME280;18191;51.288;12.390;2023-10-31T21:31:50;49195.84;;;-144.47;81.50
31585;BME280;18191;51.288;12.390;2023-10-31T21:36:40;49223.69;;;-144.47;81.77
31585;BME280;18191;51.288;12.390;2023-10-31T21:41:31;49191.84;;;-144.47;81.02
31585;BME280;18191;51.288;12.390;2023-10-31T21:46:21;49193.84;;;-144.47;83.18
31585;BME280;18191;51.288;12.390;2023-10-31T21:51:11;49185.88;;;-144.47;83.71
31585;BME280;18191;51.288;12.390;2023-10-31T21:56:02;49166.00;;;-144.47;82.76
31585;BME280;18191;51.288;12.390;2023-10-31T22:00:53;49209.75;;;-144.47;83.75
31585;BME280;18191;51.288;12.390;2023-10-31T22:05:43;49223.69;;;-144.47;84.48
31585;BME280;18191;51.288;12.390;2023-10-31T22:10:33;49223.69;;;-144.47;85.52
31585;BME280;18191;51.288;12.390;2023-10-31T22:15:24;49156.03;;;-144.47;86.75
31585;BME280;18191;51.288;12.390;2023-10-31T22:20:14;49199.81;;;-144.47;87.17
31585;BME280;18191;51.288;12.390;2023-10-31T22:25:05;49195.84;;;-144.47;87.56
31585;BME280;18191;51.288;12.390;2023-10-31T22:29:55;49205.78;;;-144.47;88.58
31585;BME280;18191;51.288;12.390;2023-10-31T22:34:46;49187.88;;;-144.47;88.80
31585;BME280;18191;51.288;12.390;2023-10-31T22:39:36;49195.84;;;-144.47;88.11
31585;BME280;18191;51.288;12.390;2023-10-31T22:44:26;49227.66;;;-144.47;88.88
31585;BME280;18191;51.288;12.390;2023-10-31T22:49:17;49207.78;;;-144.47;89.08
31585;BME280;18191;51.288;12.390;2023-10-31T22:54:07;49211.75;;;-144.47;89.76
31585;BME280;18191;51.288;12.390;2023-10-31T22:58:57;49195.84;;;-144.47;90.26
31585;BME280;18191;51.288;12.390;2023-10-31T23:03:48;49223.69;;;-144.47;89.68
31585;BME280;18191;51.288;12.390;2023-10-31T23:08:39;49243.56;;;-144.47;89.82
31585;BME280;18191;51.288;12.390;2023-10-31T23:13:30;49187.88;;;-144.47;89.19
31585;BME280;18191;51.288;12.390;2023-10-31T23:18:20;49183.91;;;-144.47;88.26
31585;BME280;18191;51.288;12.390;2023-10-31T23:23:11;49221.69;;;-144.47;88.71
31585;BME280;18191;51.288;12.390;2023-10-31T23:28:02;49207.78;;;-144.47;87.92
31585;BME280;18191;51.288;12.390;2023-10-31T23:32:54;49191.84;;;-144.47;87.58
31585;BME280;18191;51.288;12.390;2023-10-31T23:37:45;49203.78;;;-144.47;86.85
31585;BME280;18191;51.288;12.390;2023-10-31T23:42:35;49225.66;;;-144.47;86.67
31585;BME280;18191;51.288;12.390;2023-10-31T23:47:25;49187.88;;;-144.47;86.88
31585;BME280;18191;51.288;12.390;2023-10-31T23:52:19;49183.91;;;-144.47;87.82
31585;BME280;18191;51.288;12.390;2023-10-31T23:57:09;49207.78;;;-144.47;89.03
